TimeCST,TemperatureF,Dew PointF,Humidity,Sea Level PressureIn,VisibilityMPH,Wind Direction,Wind SpeedMPH,Gust SpeedMPH,PrecipitationIn,Events,Conditions,WindDirDegrees,DateUTC
12:52 AM,17.1,14.0,88,30.02,10.0,South,3.5,-,N/A,,Clear,190,2013-01-26 06:52:00
1:52 AM,16.0,12.9,88,30.01,10.0,WSW,3.5,-,N/A,,Clear,250,2013-01-26 07:52:00
2:52 AM,16.0,12.9,88,29.99,10.0,SW,3.5,-,N/A,,Clear,220,2013-01-26 08:52:00
3:52 AM,12.9,12.0,96,29.99,8.0,Calm,Calm,-,N/A,,Partly Cloudy,0,2013-01-26 09:52:00
4:52 AM,14.0,12.0,92,29.98,9.0,SSW,3.5,-,N/A,,Mostly Cloudy,210,2013-01-26 10:52:00
5:52 AM,15.1,12.9,91,29.97,9.0,Calm,Calm,-,N/A,,Clear,0,2013-01-26 11:52:00
6:52 AM,15.1,12.9,91,29.96,9.0,Calm,Calm,-,N/A,,Clear,0,2013-01-26 12:52:00
7:52 AM,15.1,12.0,88,29.96,9.0,Calm,Calm,-,N/A,,Clear,0,2013-01-26 13:52:00
8:52 AM,15.1,12.9,91,29.98,7.0,Calm,Calm,-,N/A,,Scattered Clouds,0,2013-01-26 14:52:00
9:52 AM,18.0,15.1,88,29.97,7.0,Calm,Calm,-,N/A,,Clear,0,2013-01-26 15:52:00
10:52 AM,19.9,17.1,89,29.97,8.0,Calm,Calm,-,N/A,,Overcast,0,2013-01-26 16:52:00
11:52 AM,25.0,19.0,78,29.96,7.0,Calm,Calm,-,N/A,,Overcast,0,2013-01-26 17:52:00
12:52 PM,27.0,21.9,81,29.95,8.0,NE,8.1,-,N/A,,Mostly Cloudy,40,2013-01-26 18:52:00
1:52 PM,30.0,21.9,72,29.92,8.0,Calm,Calm,-,N/A,,Clear,0,2013-01-26 19:52:00
2:52 PM,33.1,24.1,70,29.91,8.0,Calm,Calm,-,N/A,,Partly Cloudy,0,2013-01-26 20:52:00
3:52 PM,33.1,24.1,70,29.91,10.0,Calm,Calm,-,N/A,,Scattered Clouds,0,2013-01-26 21:52:00
4:52 PM,33.1,26.1,75,29.92,10.0,NNE,4.6,-,N/A,,Overcast,30,2013-01-26 22:52:00
5:52 PM,30.0,26.1,85,29.91,7.0,North,6.9,-,N/A,,Overcast,360,2013-01-26 23:52:00
6:52 PM,27.0,24.1,89,29.92,10.0,North,5.8,-,N/A,,Overcast,360,2013-01-27 00:52:00
7:52 PM,24.1,21.9,91,29.91,9.0,North,8.1,-,N/A,,Clear,10,2013-01-27 01:52:00
8:52 PM,21.9,19.9,92,29.92,9.0,North,5.8,-,N/A,,Clear,360,2013-01-27 02:52:00
9:52 PM,19.9,19.0,96,29.91,8.0,Calm,Calm,-,N/A,,Mostly Cloudy,0,2013-01-27 03:52:00
10:52 PM,21.0,19.9,96,29.89,8.0,NNE,3.5,-,N/A,,Clear,30,2013-01-27 04:52:00
11:52 PM,19.9,19.9,100,29.88,8.0,Calm,Calm,-,N/A,,Clear,0,2013-01-27 05:52:00